Time;durP1;ratioP1;P1;durP2;ratioP2;P2;SDS_P1;SDS_P2;PMS_P1;PMS_P2;Temp;Humidity;BMP_temperature;BMP_pressure;BME280_temperature;BME280_humidity;BME280_pressure;Samples;Min_cycle;Max_cycle;Signal;HPM_P1;HPM_P2
2023/12/15 00:00:57;;;;;;;;;6.67;1.00;;;;;9.70;84.66;102658.19;4997601;28;45207;-50
2023/12/15 00:03:23;;;;;;;;;19.00;13.00;;;;;9.71;84.73;102660.75;4997817;28;45277;-57
2023/12/15 00:05:48;;;;;;;;;12.33;9.00;;;;;9.74;84.81;102657.91;4997441;28;46775;-50
2023/12/15 00:08:14;;;;;;;;;15.00;10.00;;;;;9.77;84.73;102658.66;4997570;28;45378;-51
2023/12/15 00:10:39;;;;;;;;;16.67;10.00;;;;;9.74;84.54;102662.38;4997455;28;45251;-50
2023/12/15 00:13:04;;;;;;;;;16.33;8.33;;;;;9.79;84.68;102662.09;4997524;28;45406;-49
2023/12/15 00:15:29;;;;;;;;;14.67;9.00;;;;;9.78;84.96;102663.91;4997327;28;46205;-51
2023/12/15 00:17:55;;;;;;;;;11.00;10.67;;;;;9.80;85.01;102671.78;4997403;28;45451;-44
2023/12/15 00:20:20;;;;;;;;;9.00;6.67;;;;;9.70;84.60;102660.84;4997386;28;45353;-48
2023/12/15 00:22:45;;;;;;;;;9.67;9.67;;;;;9.81;85.03;102684.94;4997534;28;45231;-56
2023/12/15 00:25:11;;;;;;;;;10.33;10.33;;;;;9.79;85.14;102672.72;4996086;28;46128;-46
2023/12/15 00:27:36;;;;;;;;;10.00;10.00;;;;;9.82;85.26;102667.19;4997125;28;45435;-43
2023/12/15 00:30:03;;;;;;;;;11.33;9.00;;;;;9.83;85.50;102668.94;4996915;28;45422;-44
2023/12/15 00:32:28;;;;;;;;;7.67;7.00;;;;;9.83;86.01;102671.59;4997391;28;45410;-44
2023/12/15 00:34:53;;;;;;;;;12.00;10.33;;;;;9.82;86.31;102667.19;4996482;28;46257;-45
2023/12/15 00:37:20;;;;;;;;;9.67;7.00;;;;;9.86;86.30;102676.69;4996559;28;49626;-50
2023/12/15 00:39:46;;;;;;;;;10.00;7.67;;;;;9.85;86.35;102672.34;4996991;28;45410;-46
2023/12/15 00:42:11;;;;;;;;;7.67;7.67;;;;;9.83;86.27;102671.59;4997349;28;46021;-50
2023/12/15 00:44:36;;;;;;;;;11.67;10.67;;;;;9.79;86.60;102676.25;4996601;28;46017;-48
2023/12/15 00:47:02;;;;;;;;;8.33;8.00;;;;;9.69;87.27;102665.31;4996779;28;45403;-42
2023/12/15 00:49:27;;;;;;;;;9.00;9.00;;;;;9.81;86.83;102686.75;4996958;28;45232;-44
2023/12/15 00:51:53;;;;;;;;;11.67;8.00;;;;;9.86;86.92;102698.84;4997142;28;45215;-42
2023/12/15 00:54:18;;;;;;;;;9.33;9.33;;;;;9.86;87.20;102689.97;4996619;28;46040;-46
2023/12/15 00:56:44;;;;;;;;;7.67;7.00;;;;;9.78;87.16;102681.66;4996889;28;45286;-50
2023/12/15 00:59:09;;;;;;;;;10.00;10.00;;;;;9.84;86.97;102681.25;4996570;28;45283;-47
2023/12/15 01:01:34;;;;;;;;;15.00;9.33;;;;;9.87;87.39;102686.41;4997128;28;45330;-49
2023/12/15 01:03:59;;;;;;;;;12.33;10.00;;;;;9.84;87.55;102682.13;4996495;28;47328;-45
2023/12/15 01:06:25;;;;;;;;;11.67;11.00;;;;;9.87;87.59;102687.25;4996585;28;45436;-48
2023/12/15 01:08:50;;;;;;;;;12.00;10.00;;;;;9.85;87.26;102675.00;4996838;28;45451;-53
2023/12/15 01:11:15;;;;;;;;;7.00;7.00;;;;;9.87;87.52;102681.94;4996880;28;45375;-47
2023/12/15 01:13:41;;;;;;;;;12.33;10.33;;;;;9.87;87.56;102683.75;4996256;28;46363;-49
2023/12/15 01:16:07;;;;;;;;;14.33;11.00;;;;;9.86;87.53;102668.72;4996472;28;45374;-48
2023/12/15 01:18:32;;;;;;;;;17.00;11.33;;;;;9.82;87.65;102667.19;4996430;28;45465;-50
2023/12/15 01:20:57;;;;;;;;;12.67;10.00;;;;;9.80;87.60;102667.31;4996534;28;45835;-46
2023/12/15 01:23:23;;;;;;;;;9.00;9.00;;;;;9.81;87.93;102666.34;4996505;28;46211;-52
2023/12/15 01:25:48;;;;;;;;;11.67;11.67;;;;;9.87;87.30;102681.09;4996180;28;45392;-48
2023/12/15 01:28:13;;;;;;;;;11.33;9.00;;;;;9.88;87.38;102672.16;4996351;28;45365;-53
2023/12/15 01:30:39;;;;;;;;;11.33;8.00;;;;;9.82;87.37;102653.91;4996373;28;45454;-44
2023/12/15 01:33:04;;;;;;;;;14.67;8.33;;;;;9.90;87.51;102671.13;4994857;28;47244;-47
2023/12/15 01:35:30;;;;;;;;;9.33;7.00;;;;;9.90;87.37;102671.13;4995784;28;45390;-48
2023/12/15 01:37:55;;;;;;;;;12.33;9.67;;;;;9.94;87.65;102671.75;4996130;28;45330;-42
2023/12/15 01:40:20;;;;;;;;;16.00;11.33;;;;;9.93;87.60;102670.91;4996480;28;45347;-43
2023/12/15 01:42:47;;;;;;;;;15.67;10.00;;;;;9.95;87.44;102677.00;4995997;28;45429;-53
2023/12/15 01:45:12;;;;;;;;;15.00;13.00;;;;;9.96;87.34;102670.72;4995817;28;45218;-44
2023/12/15 01:47:37;;;;;;;;;14.33;11.67;;;;;9.91;87.32;102664.00;4995926;28;45308;-44
2023/12/15 01:50:06;;;;;;;;;12.67;11.00;;;;;9.95;87.49;102679.66;4996375;28;45469;-47
2023/12/15 01:52:31;;;;;;;;;11.00;11.00;;;;;9.97;87.24;102692.84;4995731;28;46242;-44
2023/12/15 01:54:57;;;;;;;;;20.67;13.67;;;;;9.98;87.35;102689.22;4995546;28;45400;-43
2023/12/15 01:57:22;;;;;;;;;16.00;11.67;;;;;9.98;87.38;102694.53;4996174;28;45454;-42
2023/12/15 01:59:51;;;;;;;;;11.67;11.00;;;;;10.00;87.75;102696.19;4995823;28;45552;-42
2023/12/15 02:02:17;;;;;;;;;16.33;11.67;;;;;10.02;87.46;102698.72;4995564;28;46166;-46
2023/12/15 02:04:44;;;;;;;;;16.33;13.67;;;;;10.04;87.33;102703.97;4995555;28;45398;-43
2023/12/15 02:07:10;;;;;;;;;20.33;12.00;;;;;10.00;87.50;102714.78;4995532;28;45167;-43
2023/12/15 02:09:37;;;;;;;;;17.33;13.00;;;;;10.05;87.34;102718.97;4995855;28;45176;-43
2023/12/15 02:12:03;;;;;;;;;24.67;15.00;;;;;10.03;87.37;102718.19;4995769;28;46585;-45
2023/12/15 02:14:29;;;;;;;;;19.00;14.00;;;;;10.05;87.36;102714.50;4995218;28;45433;-47
2023/12/15 02:16:54;;;;;;;;;13.67;12.33;;;;;10.06;87.45;102716.19;4995900;28;45344;-43
2023/12/15 02:19:20;;;;;;;;;21.00;11.33;;;;;10.10;87.71;102719.53;4995935;28;45337;-46
2023/12/15 02:21:45;;;;;;;;;15.33;11.00;;;;;10.09;87.54;102724.00;4995440;28;46974;-51
2023/12/15 02:24:11;;;;;;;;;17.67;14.33;;;;;10.10;87.76;102725.69;4995644;28;46081;-52
2023/12/15 02:26:36;;;;;;;;;13.00;13.00;;;;;10.09;87.83;102729.31;4995459;28;45668;-58
2023/12/15 02:29:01;;;;;;;;;16.00;13.00;;;;;10.13;88.02;102729.97;4995724;28;45344;-63
2023/12/15 02:31:26;;;;;;;;;16.67;12.67;;;;;10.13;88.04;102728.19;4995508;28;46878;-58
2023/12/15 02:33:53;;;;;;;;;18.00;14.67;;;;;10.14;88.06;102729.88;4994050;28;45190;-48
2023/12/15 02:36:22;;;;;;;;;24.67;19.00;;;;;10.15;88.05;102731.59;4995740;28;45400;-61
2023/12/15 02:38:48;;;;;;;;;17.00;12.00;;;;;10.17;88.38;102723.53;4995464;28;45444;-60
2023/12/15 02:41:14;;;;;;;;;22.00;16.67;;;;;10.07;88.16;102704.63;4995091;28;46546;-42
2023/12/15 02:43:39;;;;;;;;;23.67;16.00;;;;;10.19;88.34;102730.44;4995404;28;45334;-63
2023/12/15 02:46:06;;;;;;;;;20.33;16.00;;;;;10.20;88.22;102732.16;4995098;28;45414;-61
2023/12/15 02:48:32;;;;;;;;;20.00;17.00;;;;;10.22;87.89;102734.72;4996770;28;45358;-63
2023/12/15 02:50:57;;;;;;;;;17.00;15.00;;;;;10.21;87.46;102730.38;4998437;28;46351;-45
2023/12/15 02:53:22;;;;;;;;;18.00;17.33;;;;;10.19;86.89;102740.22;5013740;28;46721;-59
2023/12/15 02:55:49;;;;;;;;;18.67;14.33;;;;;10.24;87.17;102751.47;4998595;28;45331;-50
2023/12/15 02:58:14;;;;;;;;;25.00;16.00;;;;;10.23;86.99;102755.91;4998804;28;45485;-63
2023/12/15 03:00:39;;;;;;;;;18.00;14.67;;;;;10.24;86.97;102748.81;4998131;28;47145;-53
2023/12/15 03:03:05;;;;;;;;;14.33;11.67;;;;;10.21;86.31;102756.97;4998289;28;45247;-52
2023/12/15 03:05:30;;;;;;;;;19.00;14.67;;;;;10.22;86.44;102767.50;4998440;28;45362;-54
2023/12/15 03:07:55;;;;;;;;;17.00;12.67;;;;;10.23;86.28;102773.66;4998574;28;45534;-52
2023/12/15 03:10:21;;;;;;;;;18.67;14.00;;;;;10.11;86.23;102759.34;4998203;28;45903;-52
2023/12/15 03:12:46;;;;;;;;;14.00;10.33;;;;;10.27;86.15;102785.00;4998152;28;45370;-57
2023/12/15 03:15:11;;;;;;;;;18.67;14.00;;;;;10.20;85.94;102773.88;4998129;28;45546;-52
2023/12/15 03:17:37;;;;;;;;;17.00;15.33;;;;;10.26;86.17;102786.81;4998347;28;45367;-58
2023/12/15 03:20:03;;;;;;;;;16.00;12.67;;;;;10.28;85.99;102797.34;4997719;28;53154;-51
2023/12/15 03:22:29;;;;;;;;;14.33;11.67;;;;;10.24;85.36;102796.69;4998043;28;45326;-51
2023/12/15 03:24:54;;;;;;;;;17.33;11.67;;;;;10.23;85.90;102798.44;4998184;28;45402;-57
2023/12/15 03:27:20;;;;;;;;;29.00;12.67;;;;;10.22;85.55;102802.06;4998237;28;45322;-55
2023/12/15 03:29:45;;;;;;;;;19.33;15.00;;;;;10.19;85.68;102801.41;4997743;28;46361;-47
2023/12/15 03:32:10;;;;;;;;;19.33;13.00;;;;;10.23;86.32;102802.94;4997867;28;45752;-46
2023/12/15 03:34:36;;;;;;;;;17.33;14.67;;;;;10.22;85.94;102793.25;4997836;28;45350;-53
2023/12/15 03:37:01;;;;;;;;;14.33;14.33;;;;;10.24;86.63;102808.19;4998188;28;45330;-48
2023/12/15 03:39:26;;;;;;;;;17.67;13.33;;;;;10.23;86.30;102802.94;4997765;28;47327;-55
2023/12/15 03:41:52;;;;;;;;;17.33;17.00;;;;;10.25;85.46;102811.72;4997755;28;45413;-45
2023/12/15 03:44:17;;;;;;;;;16.67;10.33;;;;;10.26;85.93;102820.53;4997778;28;45420;-52
2023/12/15 03:46:42;;;;;;;;;22.67;13.33;;;;;10.14;85.88;102799.03;4997807;28;45148;-54
2023/12/15 03:49:08;;;;;;;;;17.00;12.67;;;;;10.26;85.57;102823.22;4997455;28;51011;-50
2023/12/15 03:51:33;;;;;;;;;19.00;16.33;;;;;10.17;85.10;102816.63;4997593;28;45366;-59
2023/12/15 03:53:58;;;;;;;;;17.00;14.33;;;;;10.21;85.19;102826.13;4997812;28;45178;-54
2023/12/15 03:56:25;;;;;;;;;26.67;17.67;;;;;10.24;85.56;102833.91;4997777;28;45299;-56
2023/12/15 03:58:51;;;;;;;;;17.33;14.33;;;;;10.26;85.40;102844.47;4997628;28;45528;-48
2023/12/15 04:01:16;;;;;;;;;22.33;16.67;;;;;10.26;85.54;102837.34;4997321;28;45488;-56
2023/12/15 04:03:42;;;;;;;;;22.33;17.67;;;;;10.26;85.81;102844.47;4997574;28;45413;-45
2023/12/15 04:06:08;;;;;;;;;21.67;14.33;;;;;10.28;85.77;102850.56;4997672;28;45527;-48
2023/12/15 04:08:39;;;;;;;;;0.00;0.00;;;;;10.28;85.76;102847.91;4997507;28;45459;-56
2023/12/15 04:11:04;;;;;;;;;20.33;16.00;;;;;10.29;85.76;102847.81;4997250;28;45249;-57
2023/12/15 04:13:29;;;;;;;;;16.33;12.67;;;;;10.31;85.32;102863.69;4997263;28;45715;-52
2023/12/15 04:15:55;;;;;;;;;21.33;11.00;;;;;10.30;85.75;102861.97;4997480;28;45334;-52
2023/12/15 04:18:20;;;;;;;;;14.67;12.00;;;;;10.33;85.61;102869.78;4996910;28;48231;-52
2023/12/15 04:20:45;;;;;;;;;18.00;14.33;;;;;10.33;85.55;102875.94;4997140;28;45377;-44
2023/12/15 04:23:10;;;;;;;;;22.00;16.00;;;;;10.26;85.48;102868.44;4995659;28;45807;-48
2023/12/15 04:25:36;;;;;;;;;17.33;16.33;;;;;10.33;85.29;102877.75;4997335;28;45446;-46
2023/12/15 04:28:01;;;;;;;;;16.00;16.00;;;;;10.34;85.28;102882.97;4997003;28;46198;-45
2023/12/15 04:30:27;;;;;;;;;21.00;16.67;;;;;10.32;85.52;102884.00;4997104;28;45397;-48
2023/12/15 04:32:52;;;;;;;;;17.33;14.67;;;;;10.31;85.59;102884.97;4997144;28;45342;-48
2023/12/15 04:35:19;;;;;;;;;19.67;17.33;;;;;10.31;85.33;102884.97;4997217;28;45856;-45
2023/12/15 04:37:44;;;;;;;;;17.00;16.00;;;;;10.30;85.40;102892.09;4996763;28;46215;-51
2023/12/15 04:40:13;;;;;;;;;14.33;12.00;;;;;10.30;85.44;102893.91;4996836;28;45382;-48
2023/12/15 04:42:38;;;;;;;;;15.33;12.67;;;;;10.28;85.28;102888.69;4997137;28;45416;-48
2023/12/15 04:45:08;;;;;;;;;19.67;14.00;;;;;10.30;85.20;102904.53;4995549;28;45393;-48
2023/12/15 04:47:34;;;;;;;;;21.00;15.67;;;;;10.26;85.22;102906.53;4996550;28;47083;-51
2023/12/15 04:50:00;;;;;;;;;17.33;13.33;;;;;10.29;85.35;102917.00;4996630;28;45399;-47
2023/12/15 04:52:25;;;;;;;;;12.67;10.00;;;;;10.30;85.33;102917.84;4996971;28;45735;-49
2023/12/15 04:54:50;;;;;;;;;13.00;10.00;;;;;10.29;85.42;102918.78;4997059;28;45378;-45
2023/12/15 04:57:16;;;;;;;;;16.33;11.67;;;;;10.29;85.50;102913.47;4996617;28;45393;-44
2023/12/15 04:59:41;;;;;;;;;15.33;12.00;;;;;10.28;85.58;102917.94;4996688;28;45390;-52
2023/12/15 05:02:07;;;;;;;;;16.00;12.67;;;;;10.28;85.50;102920.59;4996543;28;45377;-47
2023/12/15 05:04:33;;;;;;;;;19.00;10.33;;;;;10.29;85.74;102918.78;4996884;28;45478;-51
2023/12/15 05:06:59;;;;;;;;;15.33;12.00;;;;;10.27;85.42;102916.22;4996323;28;45425;-44
2023/12/15 05:09:24;;;;;;;;;17.00;12.00;;;;;10.28;85.47;102925.91;4996471;28;45444;-45
2023/12/15 05:11:49;;;;;;;;;15.33;15.33;;;;;10.30;85.28;102933.81;4995922;28;45319;-48
2023/12/15 05:14:15;;;;;;;;;16.00;11.67;;;;;10.29;85.18;102929.44;4996837;28;45388;-56
2023/12/15 05:16:40;;;;;;;;;17.00;15.00;;;;;10.31;85.35;102940.81;4995995;28;47317;-50
2023/12/15 05:19:05;;;;;;;;;20.00;12.67;;;;;10.29;85.49;102946.25;4996298;28;45333;-50
2023/12/15 05:21:31;;;;;;;;;12.00;12.00;;;;;10.28;85.84;102948.97;4996484;28;45230;-51
2023/12/15 05:23:59;;;;;;;;;22.00;15.00;;;;;10.20;85.42;102933.47;4996573;28;45217;-56
2023/12/15 05:26:26;;;;;;;;;17.33;13.00;;;;;10.28;85.30;102956.97;4996242;28;45484;-55
2023/12/15 05:28:51;;;;;;;;;16.33;12.00;;;;;10.27;85.47;102955.25;4996051;28;45511;-52
2023/12/15 05:31:17;;;;;;;;;13.00;11.67;;;;;10.18;85.53;102928.22;4996130;28;45412;-56
2023/12/15 05:33:42;;;;;;;;;18.67;13.00;;;;;10.24;85.73;102940.31;4995890;28;45450;-57
2023/12/15 05:36:16;;;;;;;;;15.67;11.00;;;;;10.26;85.55;102950.88;4995796;28;49247;-51
2023/12/15 05:38:41;;;;;;;;;22.33;12.33;;;;;10.28;85.59;102946.31;4996113;28;45330;-53
2023/12/15 05:41:07;;;;;;;;;21.33;16.00;;;;;10.27;85.92;102949.94;4996080;28;45259;-52
2023/12/15 05:43:32;;;;;;;;;17.67;12.67;;;;;10.28;85.47;102948.97;4996398;28;45394;-50
2023/12/15 05:45:57;;;;;;;;;17.67;13.00;;;;;10.26;85.60;102954.41;4995767;28;46513;-54
2023/12/15 05:48:23;;;;;;;;;11.67;10.67;;;;;10.24;85.88;102951.84;4996103;28;45275;-50
2023/12/15 05:50:48;;;;;;;;;22.00;14.00;;;;;10.26;85.99;102962.38;4996165;28;45410;-48
2023/12/15 05:53:14;;;;;;;;;22.67;15.00;;;;;10.25;85.71;102955.34;4996121;28;45223;-50
2023/12/15 05:55:39;;;;;;;;;17.33;15.33;;;;;10.26;85.77;102954.41;4995853;28;46013;-50
2023/12/15 05:58:04;;;;;;;;;15.67;11.67;;;;;10.26;86.11;102946.41;4995661;28;45369;-48
2023/12/15 06:00:30;;;;;;;;;12.67;11.00;;;;;10.24;86.28;102957.16;4995917;28;45836;-46
2023/12/15 06:02:55;;;;;;;;;18.67;14.00;;;;;10.25;85.85;102952.69;4994834;28;45433;-52
2023/12/15 06:05:20;;;;;;;;;14.67;9.33;;;;;10.26;86.27;102950.88;4995345;28;52356;-58
2023/12/15 06:07:46;;;;;;;;;13.67;11.33;;;;;10.24;86.23;102966.91;4995531;28;45444;-55
2023/12/15 06:10:11;;;;;;;;;20.33;14.00;;;;;10.24;86.06;102978.44;4995757;28;45422;-52
2023/12/15 06:12:36;;;;;;;;;16.33;11.67;;;;;10.27;86.30;102976.53;4995893;28;45614;-52
2023/12/15 06:15:02;;;;;;;;;18.33;16.67;;;;;10.28;86.45;102970.25;4995818;28;45332;-52
2023/12/15 06:17:28;;;;;;;;;26.00;15.00;;;;;10.27;86.49;102973.88;4995535;28;45454;-54
2023/12/15 06:19:53;;;;;;;;;16.00;12.00;;;;;10.30;86.52;102979.88;4995677;28;45376;-63
2023/12/15 06:22:18;;;;;;;;;19.33;13.00;;;;;10.31;86.38;102978.06;4994560;28;45604;-55
2023/12/15 06:24:44;;;;;;;;;23.67;13.00;;;;;10.31;86.43;102970.94;4998444;28;46185;-60
2023/12/15 06:27:09;;;;;;;;;17.33;14.33;;;;;10.23;86.43;102965.19;4998894;28;45442;-64
2023/12/15 06:29:34;;;;;;;;;16.67;14.00;;;;;10.29;86.27;102987.97;4999198;28;45506;-63
2023/12/15 06:32:00;;;;;;;;;19.33;15.67;;;;;10.30;86.55;102979.03;4999143;28;45428;-64
2023/12/15 06:34:25;;;;;;;;;18.67;14.00;;;;;10.30;86.61;102989.66;4998606;28;47012;-52
2023/12/15 06:36:50;;;;;;;;;13.00;12.00;;;;;10.31;86.64;103004.66;4998534;28;45379;-55
2023/12/15 06:39:16;;;;;;;;;23.00;16.00;;;;;10.31;86.55;103005.53;4998887;28;45708;-60
2023/12/15 06:41:41;;;;;;;;;22.00;15.00;;;;;10.33;86.12;103013.44;4998813;28;45274;-55
2023/12/15 06:44:06;;;;;;;;;16.67;14.33;;;;;10.30;86.00;103013.59;4998756;28;45478;-57
2023/12/15 06:46:36;;;;;;;;;16.33;13.00;;;;;10.31;85.94;103012.66;4998601;28;45275;-61
2023/12/15 06:49:02;;;;;;;;;20.67;14.67;;;;;10.31;86.17;103010.00;4998559;28;45367;-63
2023/12/15 06:51:27;;;;;;;;;16.00;14.33;;;;;10.29;86.11;103014.56;4998824;28;45583;-62
2023/12/15 06:53:52;;;;;;;;;18.67;13.00;;;;;10.23;86.93;103011.25;4998702;28;46179;-52
2023/12/15 06:56:18;;;;;;;;;20.33;16.67;;;;;10.23;87.01;103018.38;4998415;28;45345;-64
2023/12/15 06:58:43;;;;;;;;;18.33;17.00;;;;;10.22;87.22;103022.84;4998512;28;45338;-54
2023/12/15 07:01:09;;;;;;;;;20.67;14.00;;;;;10.22;87.31;103022.84;4998732;28;45423;-55
2023/12/15 07:03:34;;;;;;;;;16.67;14.67;;;;;10.23;87.07;103019.22;4998166;28;46356;-53
2023/12/15 07:05:59;;;;;;;;;17.67;17.33;;;;;10.22;87.03;103012.22;4998048;28;45433;-54
2023/12/15 07:08:25;;;;;;;;;20.00;18.00;;;;;10.22;87.20;103017.53;4998604;28;45431;-53
2023/12/15 07:10:50;;;;;;;;;31.67;17.00;;;;;10.22;87.34;103019.34;4998452;28;45430;-55
2023/12/15 07:13:16;;;;;;;;;25.00;13.00;;;;;10.17;87.38;103032.91;4998025;28;45287;-56
2023/12/15 07:15:41;;;;;;;;;21.00;16.67;;;;;10.22;87.45;103052.09;4998277;28;45549;-61
2023/12/15 07:18:06;;;;;;;;;17.00;14.33;;;;;10.22;87.56;103075.19;4998090;28;45548;-56
2023/12/15 07:20:32;;;;;;;;;19.00;15.00;;;;;10.21;87.70;103084.13;4998391;28;45443;-51
2023/12/15 07:22:57;;;;;;;;;17.33;16.00;;;;;10.23;87.43;103088.41;4998183;28;47124;-57
2023/12/15 07:25:24;;;;;;;;;21.67;17.33;;;;;10.15;87.55;103072.00;4997799;28;45338;-57
2023/12/15 07:27:50;;;;;;;;;25.67;19.33;;;;;10.26;88.11;103090.06;4998100;28;45484;-56
2023/12/15 07:30:15;;;;;;;;;18.00;17.00;;;;;10.29;87.64;103097.88;4998295;28;45235;-59
2023/12/15 07:32:41;;;;;;;;;16.33;15.00;;;;;10.32;87.43;103091.50;4997817;28;45914;-62
2023/12/15 07:35:06;;;;;;;;;24.00;18.00;;;;;10.33;87.36;103082.59;4997192;28;45388;-54
2023/12/15 07:37:32;;;;;;;;;25.00;16.33;;;;;10.36;87.29;103079.75;4997890;28;45462;-50
2023/12/15 07:39:57;;;;;;;;;16.67;13.00;;;;;10.37;87.18;103078.84;4997922;28;45542;-58
2023/12/15 07:42:23;;;;;;;;;13.33;12.00;;;;;10.39;87.16;103092.88;4997665;28;46197;-56
2023/12/15 07:44:48;;;;;;;;;21.67;18.00;;;;;10.39;87.17;103107.03;4997744;28;45428;-63
2023/12/15 07:47:13;;;;;;;;;19.00;15.67;;;;;10.39;87.09;103120.34;4997802;28;45342;-57
2023/12/15 07:49:39;;;;;;;;;17.67;16.33;;;;;10.39;87.46;103123.00;4997795;28;45413;-55
2023/12/15 07:52:04;;;;;;;;;15.00;11.33;;;;;10.41;86.73;103117.63;4997489;28;46162;-63
2023/12/15 07:54:29;;;;;;;;;17.67;17.33;;;;;10.41;86.68;103122.94;4995232;28;45434;-60
2023/12/15 07:56:55;;;;;;;;;22.00;18.33;;;;;10.42;86.41;103122.84;4995755;28;45868;-57
2023/12/15 07:59:21;;;;;;;;;15.33;14.00;;;;;10.41;86.65;103128.25;4994849;28;45521;-62
2023/12/15 08:01:51;;;;;;;;;22.33;17.00;;;;;10.41;86.27;103128.25;4994687;28;45580;-58
2023/12/15 08:04:17;;;;;;;;;21.67;15.33;;;;;10.39;86.65;103117.69;4994561;28;45415;-62
2023/12/15 08:06:42;;;;;;;;;26.33;17.33;;;;;10.38;86.20;103123.09;4994856;28;46405;-60
2023/12/15 08:09:08;;;;;;;;;21.67;16.00;;;;;10.43;86.24;103132.53;4994951;28;45434;-63
2023/12/15 08:11:33;;;;;;;;;22.33;19.67;;;;;10.43;86.27;103145.84;4993162;28;47134;-55
2023/12/15 08:13:58;;;;;;;;;17.67;16.00;;;;;10.43;86.37;103147.66;4994429;28;45444;-54
2023/12/15 08:16:24;;;;;;;;;27.67;20.00;;;;;10.42;86.17;103141.47;4994590;28;45705;-56
2023/12/15 08:18:50;;;;;;;;;30.00;19.67;;;;;10.33;86.11;103126.03;4994359;28;45542;-42
2023/12/15 08:21:15;;;;;;;;;24.33;17.33;;;;;10.47;85.84;103155.38;4994586;28;47134;-58
2023/12/15 08:23:41;;;;;;;;;17.67;14.67;;;;;10.36;85.86;103128.50;4994274;28;45531;-48
2023/12/15 08:26:07;;;;;;;;;26.67;19.67;;;;;10.52;85.61;103164.88;4994245;28;45613;-53
2023/12/15 08:28:32;;;;;;;;;23.33;16.00;;;;;10.54;85.51;103171.00;4994582;28;45568;-60
2023/12/15 08:30:58;;;;;;;;;16.67;14.00;;;;;10.58;85.47;103168.06;4994530;28;47000;-56
2023/12/15 08:33:24;;;;;;;;;24.00;20.00;;;;;10.52;85.22;103147.13;4994289;28;46114;-56
2023/12/15 08:35:49;;;;;;;;;25.00;19.00;;;;;10.62;84.84;103164.28;4994532;28;45564;-58
2023/12/15 08:38:15;;;;;;;;;26.00;18.67;;;;;10.62;85.13;103169.63;4994392;28;45425;-57
2023/12/15 08:40:40;;;;;;;;;29.00;21.33;;;;;10.66;84.80;103176.47;4994533;28;46247;-56
2023/12/15 08:43:05;;;;;;;;;16.00;15.33;;;;;10.71;84.82;103177.06;4994076;28;46465;-61
2023/12/15 08:45:31;;;;;;;;;23.00;18.00;;;;;10.73;84.84;103183.16;4993606;28;45440;-57
2023/12/15 08:47:56;;;;;;;;;23.67;16.33;;;;;10.77;84.68;103193.63;4994560;28;45441;-53
2023/12/15 08:50:22;;;;;;;;;21.67;17.00;;;;;10.78;84.44;103209.50;4993790;28;46268;-54
2023/12/15 08:52:47;;;;;;;;;21.00;17.33;;;;;10.79;84.23;103194.38;4994150;28;45611;-60
2023/12/15 08:55:13;;;;;;;;;26.67;17.67;;;;;10.81;83.54;103177.38;4993981;28;45960;-56
2023/12/15 08:57:38;;;;;;;;;26.00;18.67;;;;;10.86;83.55;103185.09;4994537;28;45861;-62
2023/12/15 09:00:04;;;;;;;;;23.67;18.00;;;;;10.91;83.10;103189.25;4993683;28;47042;-59
2023/12/15 09:02:29;;;;;;;;;21.67;15.00;;;;;10.95;83.13;103188.09;4993959;28;45504;-63
2023/12/15 09:04:55;;;;;;;;;18.33;15.67;;;;;10.84;83.32;103166.56;4993745;28;45574;-59
2023/12/15 09:07:20;;;;;;;;;19.67;15.67;;;;;11.06;82.58;103189.28;4994209;28;45492;-62
2023/12/15 09:09:46;;;;;;;;;17.67;16.67;;;;;11.10;83.15;103193.47;4993994;28;46278;-57
2023/12/15 09:12:11;;;;;;;;;20.00;16.00;;;;;11.13;82.37;103194.16;4993859;28;45461;-62
2023/12/15 09:14:37;;;;;;;;;20.00;17.00;;;;;11.18;82.32;103194.75;4993693;28;45481;-63
2023/12/15 09:17:03;;;;;;;;;20.67;15.67;;;;;11.19;81.76;103193.78;5008991;28;45553;-63
2023/12/15 09:19:29;;;;;;;;;21.00;18.00;;;;;11.21;81.41;103194.56;4993463;28;46880;-63
2023/12/15 09:21:55;;;;;;;;;23.67;17.33;;;;;11.31;81.32;103210.00;4993715;28;45441;-53
2023/12/15 09:24:21;;;;;;;;;22.67;17.67;;;;;11.31;80.82;103220.66;4993815;28;45878;-56
2023/12/15 09:26:46;;;;;;;;;20.00;14.00;;;;;11.32;81.17;103217.03;4993648;28;45629;-63
2023/12/15 09:29:12;;;;;;;;;21.33;17.67;;;;;11.37;80.64;103215.81;4994013;28;45461;-58
2023/12/15 09:31:38;;;;;;;;;28.00;20.00;;;;;11.43;80.63;103217.28;4993611;28;45639;-58
2023/12/15 09:34:04;;;;;;;;;18.33;16.00;;;;;11.49;80.21;103225.75;4993622;28;45334;-56
2023/12/15 09:36:30;;;;;;;;;27.33;17.67;;;;;11.57;79.95;103229.75;4993837;28;45338;-62
2023/12/15 09:38:55;;;;;;;;;24.67;15.67;;;;;11.65;79.71;103223.00;4993336;28;45734;-57
2023/12/15 09:41:21;;;;;;;;;22.00;12.00;;;;;11.71;79.19;103230.66;4993703;28;45438;-56
2023/12/15 09:43:47;;;;;;;;;17.33;17.33;;;;;11.78;79.14;103225.78;4993601;28;45698;-57
2023/12/15 09:46:12;;;;;;;;;20.00;16.67;;;;;11.83;78.59;103231.72;4993735;28;45447;-59
2023/12/15 09:48:38;;;;;;;;;19.00;16.33;;;;;11.94;77.74;103233.75;4993130;28;45523;-55
2023/12/15 09:51:08;;;;;;;;;21.33;17.00;;;;;12.02;77.15;103234.13;4992970;28;46325;-65
2023/12/15 09:53:38;;;;;;;;;27.33;13.33;;;;;12.04;77.42;103239.38;4993656;28;45417;-64
2023/12/15 09:56:04;;;;;;;;;20.00;15.00;;;;;11.96;77.47;103242.50;4993245;28;45445;-63
2023/12/15 09:58:29;;;;;;;;;22.00;15.67;;;;;12.11;76.92;103254.06;4996143;28;47343;-64
2023/12/15 10:00:55;;;;;;;;;23.67;19.00;;;;;12.15;77.05;103261.75;4996662;28;45624;-61
2023/12/15 10:03:20;;;;;;;;;18.67;14.67;;;;;12.20;76.46;103254.31;4997963;28;45527;-63
2023/12/15 10:05:46;;;;;;;;;19.67;14.67;;;;;12.29;76.25;103270.72;4993492;28;45805;-63
2023/12/15 10:08:12;;;;;;;;;18.33;16.67;;;;;12.37;76.71;103268.41;4994031;28;46357;-63
2023/12/15 10:10:37;;;;;;;;;23.00;19.33;;;;;12.38;75.58;103268.31;4993751;28;45430;-62
2023/12/15 10:13:03;;;;;;;;;20.67;19.00;;;;;12.42;76.07;103269.84;4993965;28;46481;-62
2023/12/15 10:15:28;;;;;;;;;20.33;17.33;;;;;12.50;75.26;103266.69;4994318;28;45512;-62
2023/12/15 10:17:54;;;;;;;;;23.67;17.33;;;;;12.51;75.82;103275.56;4994313;28;46264;-62
2023/12/15 10:20:20;;;;;;;;;18.33;17.33;;;;;12.54;75.17;103270.88;4993577;28;45510;-62
2023/12/15 10:22:46;;;;;;;;;27.00;21.33;;;;;12.63;75.18;103277.44;4993932;28;45833;-56
2023/12/15 10:25:23;;;;;;;;;17.33;16.00;;;;;12.75;74.76;103273.97;4993211;28;46385;-63
2023/12/15 10:27:49;;;;;;;;;19.00;15.67;;;;;12.95;74.05;103272.69;4993442;28;46175;-63
2023/12/15 10:30:16;;;;;;;;;20.00;15.67;;;;;13.16;73.32;103276.63;4993323;28;45444;-63
2023/12/15 10:32:44;;;;;;;;;20.00;16.00;;;;;13.37;72.14;103285.06;4993830;28;46542;-63
2023/12/15 10:35:10;;;;;;;;;25.00;20.67;;;;;13.46;71.85;103267.53;4992571;28;45600;-61
2023/12/15 10:37:41;;;;;;;;;25.67;21.00;;;;;13.61;71.32;103277.22;4991998;28;45834;-50
2023/12/15 10:40:07;;;;;;;;;21.33;18.67;;;;;14.15;70.38;103303.75;4993778;28;46649;-49
2023/12/15 10:42:33;;;;;;;;;17.33;17.33;;;;;14.48;68.86;103305.91;4992990;28;45848;-52
2023/12/15 10:45:02;;;;;;;;;21.67;17.00;;;;;14.45;68.25;103306.13;4992880;28;45540;-48
2023/12/15 10:47:28;;;;;;;;;28.67;20.00;;;;;14.37;68.32;103305.81;4993108;28;46074;-49
2023/12/15 10:49:54;;;;;;;;;20.00;16.00;;;;;14.28;68.43;103310.94;4993543;28;45507;-48
2023/12/15 10:52:22;;;;;;;;;23.00;16.33;;;;;14.21;68.27;103311.38;4993164;28;45440;-48
2023/12/15 10:54:50;;;;;;;;;18.00;16.00;;;;;14.13;68.25;103307.53;4993064;28;45679;-46
2023/12/15 10:57:15;;;;;;;;;17.00;15.67;;;;;14.15;67.81;103321.66;4992534;28;46219;-52
2023/12/15 10:59:41;;;;;;;;;14.00;11.67;;;;;14.12;68.34;103337.94;4992643;28;45715;-47
2023/12/15 11:02:11;;;;;;;;;21.33;15.00;;;;;14.03;68.40;103342.13;4992833;28;45506;-54
2023/12/15 11:04:37;;;;;;;;;18.00;14.33;;;;;13.90;68.71;103341.22;4993731;28;45389;-43